sensor_id;sensor_type;location;lat;lon;timestamp;temperature;humidity
74368;DHT22;64991;41.090;-8.118;2024-01-10T00:00:12;13.80;78.70
74368;DHT22;64991;41.090;-8.118;2024-01-10T00:05:17;13.80;78.70
74368;DHT22;64991;41.090;-8.118;2024-01-10T00:10:22;13.70;78.50
74368;DHT22;64991;41.090;-8.118;2024-01-10T00:15:25;13.80;78.50
74368;DHT22;64991;41.090;-8.118;2024-01-10T00:20:30;13.80;78.60
74368;DHT22;64991;41.090;-8.118;2024-01-10T00:25:34;13.80;78.70
74368;DHT22;64991;41.090;-8.118;2024-01-10T00:30:38;13.70;78.40
74368;DHT22;64991;41.090;-8.118;2024-01-10T00:35:43;13.70;78.60
74368;DHT22;64991;41.090;-8.118;2024-01-10T00:40:47;13.80;78.50
74368;DHT22;64991;41.090;-8.118;2024-01-10T00:45:50;13.70;78.60
74368;DHT22;64991;41.090;-8.118;2024-01-10T00:50:56;13.80;78.50
74368;DHT22;64991;41.090;-8.118;2024-01-10T00:56:00;13.70;78.70
74368;DHT22;64991;41.090;-8.118;2024-01-10T01:01:03;13.70;78.60
74368;DHT22;64991;41.090;-8.118;2024-01-10T01:06:09;13.70;78.50
74368;DHT22;64991;41.090;-8.118;2024-01-10T01:11:14;13.70;78.60
74368;DHT22;64991;41.090;-8.118;2024-01-10T01:16:18;13.70;78.60
74368;DHT22;64991;41.090;-8.118;2024-01-10T01:21:23;13.70;78.60
74368;DHT22;64991;41.090;-8.118;2024-01-10T01:26:28;13.70;78.80
74368;DHT22;64991;41.090;-8.118;2024-01-10T01:31:32;13.70;78.70
74368;DHT22;64991;41.090;-8.118;2024-01-10T01:36:38;13.70;78.80
74368;DHT22;64991;41.090;-8.118;2024-01-10T01:41:41;13.70;78.60
74368;DHT22;64991;41.090;-8.118;2024-01-10T01:46:45;13.70;78.70
74368;DHT22;64991;41.090;-8.118;2024-01-10T01:51:52;13.70;78.80
74368;DHT22;64991;41.090;-8.118;2024-01-10T01:56:56;13.70;78.60
74368;DHT22;64991;41.090;-8.118;2024-01-10T02:02:00;13.80;78.70
74368;DHT22;64991;41.090;-8.118;2024-01-10T02:07:08;13.70;78.70
74368;DHT22;64991;41.090;-8.118;2024-01-10T02:12:11;13.70;78.90
74368;DHT22;64991;41.090;-8.118;2024-01-10T02:17:15;13.70;78.70
74368;DHT22;64991;41.090;-8.118;2024-01-10T02:22:21;13.70;78.80
74368;DHT22;64991;41.090;-8.118;2024-01-10T02:27:27;13.60;78.80
74368;DHT22;64991;41.090;-8.118;2024-01-10T02:32:31;13.70;79.00
74368;DHT22;64991;41.090;-8.118;2024-01-10T02:37:35;13.80;78.90
74368;DHT22;64991;41.090;-8.118;2024-01-10T02:42:40;13.60;78.90
74368;DHT22;64991;41.090;-8.118;2024-01-10T02:47:45;13.70;78.80
74368;DHT22;64991;41.090;-8.118;2024-01-10T02:52:48;13.70;78.80
74368;DHT22;64991;41.090;-8.118;2024-01-10T02:57:54;13.60;79.00
74368;DHT22;64991;41.090;-8.118;2024-01-10T03:02:57;13.70;78.90
74368;DHT22;64991;41.090;-8.118;2024-01-10T03:08:02;13.70;79.10
74368;DHT22;64991;41.090;-8.118;2024-01-10T03:13:09;13.70;79.00
74368;DHT22;64991;41.090;-8.118;2024-01-10T03:18:13;13.60;78.90
74368;DHT22;64991;41.090;-8.118;2024-01-10T03:23:17;13.70;79.00
74368;DHT22;64991;41.090;-8.118;2024-01-10T03:28:23;13.70;79.00
74368;DHT22;64991;41.090;-8.118;2024-01-10T03:33:27;13.70;79.20
74368;DHT22;64991;41.090;-8.118;2024-01-10T03:38:31;13.60;79.00
74368;DHT22;64991;41.090;-8.118;2024-01-10T03:43:36;13.70;79.10
74368;DHT22;64991;41.090;-8.118;2024-01-10T03:48:39;13.70;79.00
74368;DHT22;64991;41.090;-8.118;2024-01-10T03:53:50;13.70;78.90
74368;DHT22;64991;41.090;-8.118;2024-01-10T03:58:55;13.60;79.00
74368;DHT22;64991;41.090;-8.118;2024-01-10T04:03:59;13.60;79.00
74368;DHT22;64991;41.090;-8.118;2024-01-10T04:09:03;13.60;79.10
74368;DHT22;64991;41.090;-8.118;2024-01-10T04:14:11;13.60;79.00
74368;DHT22;64991;41.090;-8.118;2024-01-10T04:19:15;13.70;79.10
74368;DHT22;64991;41.090;-8.118;2024-01-10T04:24:19;13.70;79.10
74368;DHT22;64991;41.090;-8.118;2024-01-10T04:29:24;13.60;79.20
74368;DHT22;64991;41.090;-8.118;2024-01-10T04:34:28;13.60;79.10
74368;DHT22;64991;41.090;-8.118;2024-01-10T04:39:32;13.60;79.00
74368;DHT22;64991;41.090;-8.118;2024-01-10T04:49:42;13.60;79.30
74368;DHT22;64991;41.090;-8.118;2024-01-10T04:54:46;13.70;79.10
74368;DHT22;64991;41.090;-8.118;2024-01-10T04:59:50;13.60;79.30
74368;DHT22;64991;41.090;-8.118;2024-01-10T05:04:55;13.60;79.20
74368;DHT22;64991;41.090;-8.118;2024-01-10T05:09:59;13.50;79.40
74368;DHT22;64991;41.090;-8.118;2024-01-10T05:15:03;13.60;79.20
74368;DHT22;64991;41.090;-8.118;2024-01-10T05:20:09;13.60;79.20
74368;DHT22;64991;41.090;-8.118;2024-01-10T05:25:13;13.60;79.20
74368;DHT22;64991;41.090;-8.118;2024-01-10T05:30:20;13.60;79.20
74368;DHT22;64991;41.090;-8.118;2024-01-10T05:35:30;13.50;79.30
74368;DHT22;64991;41.090;-8.118;2024-01-10T05:40:34;13.60;79.30
74368;DHT22;64991;41.090;-8.118;2024-01-10T05:45:37;13.60;79.40
74368;DHT22;64991;41.090;-8.118;2024-01-10T05:50:43;13.50;79.30
74368;DHT22;64991;41.090;-8.118;2024-01-10T05:55:47;13.60;79.20
74368;DHT22;64991;41.090;-8.118;2024-01-10T06:00:51;13.50;79.20
74368;DHT22;64991;41.090;-8.118;2024-01-10T06:05:56;13.50;79.30
74368;DHT22;64991;41.090;-8.118;2024-01-10T06:11:02;13.60;79.30
74368;DHT22;64991;41.090;-8.118;2024-01-10T06:16:08;13.60;79.30
74368;DHT22;64991;41.090;-8.118;2024-01-10T06:21:13;13.60;79.40
74368;DHT22;64991;41.090;-8.118;2024-01-10T06:26:17;13.60;79.30
74368;DHT22;64991;41.090;-8.118;2024-01-10T06:31:21;13.60;79.60
74368;DHT22;64991;41.090;-8.118;2024-01-10T06:36:27;13.60;79.50
74368;DHT22;64991;41.090;-8.118;2024-01-10T06:41:30;13.70;79.20
74368;DHT22;64991;41.090;-8.118;2024-01-10T06:46:34;13.60;79.50
74368;DHT22;64991;41.090;-8.118;2024-01-10T06:51:39;13.50;79.40
74368;DHT22;64991;41.090;-8.118;2024-01-10T06:56:43;13.50;79.50
74368;DHT22;64991;41.090;-8.118;2024-01-10T07:01:51;13.60;79.40
74368;DHT22;64991;41.090;-8.118;2024-01-10T07:06:56;13.60;79.40
74368;DHT22;64991;41.090;-8.118;2024-01-10T07:12:01;13.60;79.30
74368;DHT22;64991;41.090;-8.118;2024-01-10T07:17:06;13.50;79.40
74368;DHT22;64991;41.090;-8.118;2024-01-10T07:22:12;13.60;79.50
74368;DHT22;64991;41.090;-8.118;2024-01-10T07:27:16;13.50;79.60
74368;DHT22;64991;41.090;-8.118;2024-01-10T07:32:20;13.50;79.60
74368;DHT22;64991;41.090;-8.118;2024-01-10T07:37:25;13.50;79.50
74368;DHT22;64991;41.090;-8.118;2024-01-10T07:42:29;13.60;79.70
74368;DHT22;64991;41.090;-8.118;2024-01-10T07:47:33;13.50;79.50
74368;DHT22;64991;41.090;-8.118;2024-01-10T07:52:41;13.50;79.40
74368;DHT22;64991;41.090;-8.118;2024-01-10T07:57:45;13.60;79.60
74368;DHT22;64991;41.090;-8.118;2024-01-10T08:02:49;13.50;79.60
74368;DHT22;64991;41.090;-8.118;2024-01-10T08:07:55;13.50;79.50
74368;DHT22;64991;41.090;-8.118;2024-01-10T08:13:00;13.60;79.50
74368;DHT22;64991;41.090;-8.118;2024-01-10T08:18:04;13.50;79.70
74368;DHT22;64991;41.090;-8.118;2024-01-10T08:23:11;13.60;79.60
74368;DHT22;64991;41.090;-8.118;2024-01-10T08:28:15;13.50;79.60
74368;DHT22;64991;41.090;-8.118;2024-01-10T08:33:19;13.50;79.60
74368;DHT22;64991;41.090;-8.118;2024-01-10T08:38:25;13.60;79.60
74368;DHT22;64991;41.090;-8.118;2024-01-10T08:43:29;13.60;79.30
74368;DHT22;64991;41.090;-8.118;2024-01-10T08:48:33;13.50;79.50
74368;DHT22;64991;41.090;-8.118;2024-01-10T08:53:40;13.60;79.70
74368;DHT22;64991;41.090;-8.118;2024-01-10T08:58:44;13.50;79.60
74368;DHT22;64991;41.090;-8.118;2024-01-10T09:03:47;13.50;79.90
74368;DHT22;64991;41.090;-8.118;2024-01-10T09:08:53;13.50;79.70
74368;DHT22;64991;41.090;-8.118;2024-01-10T09:13:57;13.50;79.70
74368;DHT22;64991;41.090;-8.118;2024-01-10T09:19:01;13.50;79.70
74368;DHT22;64991;41.090;-8.118;2024-01-10T09:24:07;13.60;79.60
74368;DHT22;64991;41.090;-8.118;2024-01-10T09:29:29;13.50;79.80
74368;DHT22;64991;41.090;-8.118;2024-01-10T09:34:33;13.50;79.70
74368;DHT22;64991;41.090;-8.118;2024-01-10T09:39:38;13.50;79.80
74368;DHT22;64991;41.090;-8.118;2024-01-10T09:44:43;13.50;79.50
74368;DHT22;64991;41.090;-8.118;2024-01-10T09:49:48;13.50;79.90
74368;DHT22;64991;41.090;-8.118;2024-01-10T09:54:54;13.50;79.70
74368;DHT22;64991;41.090;-8.118;2024-01-10T09:59:59;13.50;79.70
74368;DHT22;64991;41.090;-8.118;2024-01-10T10:05:07;13.60;80.00
74368;DHT22;64991;41.090;-8.118;2024-01-10T10:10:14;13.50;79.70
74368;DHT22;64991;41.090;-8.118;2024-01-10T10:15:18;13.50;79.80
74368;DHT22;64991;41.090;-8.118;2024-01-10T10:20:24;13.50;79.80
74368;DHT22;64991;41.090;-8.118;2024-01-10T10:25:31;13.50;80.00
74368;DHT22;64991;41.090;-8.118;2024-01-10T10:30:36;13.50;79.90
74368;DHT22;64991;41.090;-8.118;2024-01-10T10:35:41;13.50;80.10
74368;DHT22;64991;41.090;-8.118;2024-01-10T10:40:51;13.40;80.00
74368;DHT22;64991;41.090;-8.118;2024-01-10T10:45:55;13.50;80.20
74368;DHT22;64991;41.090;-8.118;2024-01-10T10:51:03;13.50;80.00
74368;DHT22;64991;41.090;-8.118;2024-01-10T10:56:11;13.40;80.00
74368;DHT22;64991;41.090;-8.118;2024-01-10T11:01:15;13.50;79.90
74368;DHT22;64991;41.090;-8.118;2024-01-10T11:06:19;13.50;79.90
74368;DHT22;64991;41.090;-8.118;2024-01-10T11:11:33;13.50;79.90
74368;DHT22;64991;41.090;-8.118;2024-01-10T11:16:55;13.50;80.10
74368;DHT22;64991;41.090;-8.118;2024-01-10T11:22:10;13.50;79.90
74368;DHT22;64991;41.090;-8.118;2024-01-10T11:27:21;13.40;80.10
74368;DHT22;64991;41.090;-8.118;2024-01-10T11:32:26;13.40;80.10
74368;DHT22;64991;41.090;-8.118;2024-01-10T11:37:38;13.50;80.10
74368;DHT22;64991;41.090;-8.118;2024-01-10T11:42:44;13.50;80.10
74368;DHT22;64991;41.090;-8.118;2024-01-10T11:47:49;13.40;80.20
74368;DHT22;64991;41.090;-8.118;2024-01-10T11:52:54;13.50;80.00
74368;DHT22;64991;41.090;-8.118;2024-01-10T11:58:05;13.40;80.20
74368;DHT22;64991;41.090;-8.118;2024-01-10T12:03:12;13.50;80.10
74368;DHT22;64991;41.090;-8.118;2024-01-10T12:08:15;13.40;80.40
74368;DHT22;64991;41.090;-8.118;2024-01-10T12:13:20;13.40;80.30
74368;DHT22;64991;41.090;-8.118;2024-01-10T12:18:24;13.50;80.20
74368;DHT22;64991;41.090;-8.118;2024-01-10T12:23:28;13.50;80.00
74368;DHT22;64991;41.090;-8.118;2024-01-10T12:28:35;13.40;80.30
74368;DHT22;64991;41.090;-8.118;2024-01-10T12:33:39;13.50;80.30
74368;DHT22;64991;41.090;-8.118;2024-01-10T12:38:44;13.40;80.40
74368;DHT22;64991;41.090;-8.118;2024-01-10T12:43:50;13.50;80.30
74368;DHT22;64991;41.090;-8.118;2024-01-10T12:48:59;13.50;80.50
74368;DHT22;64991;41.090;-8.118;2024-01-10T12:54:05;13.50;80.20
74368;DHT22;64991;41.090;-8.118;2024-01-10T12:59:10;13.50;80.20
74368;DHT22;64991;41.090;-8.118;2024-01-10T13:04:14;13.50;80.20
74368;DHT22;64991;41.090;-8.118;2024-01-10T13:09:18;13.50;80.30
74368;DHT22;64991;41.090;-8.118;2024-01-10T13:14:24;13.50;80.20
74368;DHT22;64991;41.090;-8.118;2024-01-10T13:19:28;13.40;80.40
74368;DHT22;64991;41.090;-8.118;2024-01-10T13:24:32;13.50;80.20
74368;DHT22;64991;41.090;-8.118;2024-01-10T13:29:37;13.50;80.20
74368;DHT22;64991;41.090;-8.118;2024-01-10T13:34:41;13.50;80.30
74368;DHT22;64991;41.090;-8.118;2024-01-10T13:39:46;13.50;80.10
74368;DHT22;64991;41.090;-8.118;2024-01-10T13:44:51;13.50;80.40
74368;DHT22;64991;41.090;-8.118;2024-01-10T13:49:55;13.50;80.30
74368;DHT22;64991;41.090;-8.118;2024-01-10T13:54:59;13.50;80.10
74368;DHT22;64991;41.090;-8.118;2024-01-10T14:00:06;13.60;80.30
74368;DHT22;64991;41.090;-8.118;2024-01-10T14:05:10;13.60;80.40
74368;DHT22;64991;41.090;-8.118;2024-01-10T14:10:14;13.60;80.30
74368;DHT22;64991;41.090;-8.118;2024-01-10T14:15:19;13.50;80.40
74368;DHT22;64991;41.090;-8.118;2024-01-10T14:20:23;13.50;80.50
74368;DHT22;64991;41.090;-8.118;2024-01-10T14:25:27;13.50;80.40
74368;DHT22;64991;41.090;-8.118;2024-01-10T14:30:32;13.50;80.60
74368;DHT22;64991;41.090;-8.118;2024-01-10T14:35:36;13.60;80.50
74368;DHT22;64991;41.090;-8.118;2024-01-10T14:40:40;13.50;80.50
74368;DHT22;64991;41.090;-8.118;2024-01-10T14:45:45;13.60;80.60
74368;DHT22;64991;41.090;-8.118;2024-01-10T14:50:50;13.50;80.50
74368;DHT22;64991;41.090;-8.118;2024-01-10T14:55:54;13.50;80.70
74368;DHT22;64991;41.090;-8.118;2024-01-10T15:00:59;13.50;80.70
74368;DHT22;64991;41.090;-8.118;2024-01-10T15:06:04;13.50;80.70
74368;DHT22;64991;41.090;-8.118;2024-01-10T15:11:08;13.50;80.80
74368;DHT22;64991;41.090;-8.118;2024-01-10T15:16:14;13.60;80.80
74368;DHT22;64991;41.090;-8.118;2024-01-10T15:21:18;13.60;80.80
74368;DHT22;64991;41.090;-8.118;2024-01-10T15:26:22;13.50;81.10
74368;DHT22;64991;41.090;-8.118;2024-01-10T15:31:27;13.50;81.10
74368;DHT22;64991;41.090;-8.118;2024-01-10T15:36:32;13.50;80.90
74368;DHT22;64991;41.090;-8.118;2024-01-10T15:41:36;13.50;81.00
74368;DHT22;64991;41.090;-8.118;2024-01-10T15:46:42;13.50;81.20
74368;DHT22;64991;41.090;-8.118;2024-01-10T15:51:46;13.50;81.10
74368;DHT22;64991;41.090;-8.118;2024-01-10T15:56:50;13.50;81.40
74368;DHT22;64991;41.090;-8.118;2024-01-10T16:01:55;13.50;81.20
74368;DHT22;64991;41.090;-8.118;2024-01-10T16:06:59;13.50;81.20
74368;DHT22;64991;41.090;-8.118;2024-01-10T16:12:04;13.50;81.10
74368;DHT22;64991;41.090;-8.118;2024-01-10T16:17:09;13.50;81.40
74368;DHT22;64991;41.090;-8.118;2024-01-10T16:22:13;13.50;81.20
74368;DHT22;64991;41.090;-8.118;2024-01-10T16:27:17;13.50;81.30
74368;DHT22;64991;41.090;-8.118;2024-01-10T16:32:22;13.50;81.10
74368;DHT22;64991;41.090;-8.118;2024-01-10T16:37:26;13.50;81.30
74368;DHT22;64991;41.090;-8.118;2024-01-10T16:42:30;13.50;81.20
74368;DHT22;64991;41.090;-8.118;2024-01-10T16:47:38;13.50;81.40
74368;DHT22;64991;41.090;-8.118;2024-01-10T16:52:42;13.40;81.40
74368;DHT22;64991;41.090;-8.118;2024-01-10T16:57:45;13.50;81.30
74368;DHT22;64991;41.090;-8.118;2024-01-10T17:02:53;13.50;81.30
74368;DHT22;64991;41.090;-8.118;2024-01-10T17:07:59;13.50;81.50
74368;DHT22;64991;41.090;-8.118;2024-01-10T17:13:03;13.50;81.50
74368;DHT22;64991;41.090;-8.118;2024-01-10T17:18:08;13.50;81.30
74368;DHT22;64991;41.090;-8.118;2024-01-10T17:23:12;13.50;81.30
74368;DHT22;64991;41.090;-8.118;2024-01-10T17:28:16;13.50;81.50
74368;DHT22;64991;41.090;-8.118;2024-01-10T17:33:21;13.50;81.30
74368;DHT22;64991;41.090;-8.118;2024-01-10T17:38:25;13.40;81.20
74368;DHT22;64991;41.090;-8.118;2024-01-10T17:43:29;13.50;81.60
74368;DHT22;64991;41.090;-8.118;2024-01-10T17:48:35;13.50;81.60
74368;DHT22;64991;41.090;-8.118;2024-01-10T17:53:39;13.50;81.40
74368;DHT22;64991;41.090;-8.118;2024-01-10T17:58:43;13.50;81.40
74368;DHT22;64991;41.090;-8.118;2024-01-10T18:03:49;13.50;81.40
74368;DHT22;64991;41.090;-8.118;2024-01-10T18:09:07;13.50;81.30
74368;DHT22;64991;41.090;-8.118;2024-01-10T18:14:11;13.50;81.40
74368;DHT22;64991;41.090;-8.118;2024-01-10T18:19:16;13.40;81.40
74368;DHT22;64991;41.090;-8.118;2024-01-10T18:24:20;13.50;81.60
74368;DHT22;64991;41.090;-8.118;2024-01-10T18:29:24;13.40;81.20
74368;DHT22;64991;41.090;-8.118;2024-01-10T18:34:29;13.50;81.40
74368;DHT22;64991;41.090;-8.118;2024-01-10T18:39:33;13.50;81.50
74368;DHT22;64991;41.090;-8.118;2024-01-10T18:44:37;13.40;81.40
74368;DHT22;64991;41.090;-8.118;2024-01-10T18:49:42;13.50;81.30
74368;DHT22;64991;41.090;-8.118;2024-01-10T18:54:46;13.40;81.20
74368;DHT22;64991;41.090;-8.118;2024-01-10T18:59:50;13.50;81.20
74368;DHT22;64991;41.090;-8.118;2024-01-10T19:04:55;13.50;81.40
74368;DHT22;64991;41.090;-8.118;2024-01-10T19:10:00;13.50;81.30
74368;DHT22;64991;41.090;-8.118;2024-01-10T19:15:04;13.50;81.40
74368;DHT22;64991;41.090;-8.118;2024-01-10T19:20:11;13.50;81.40
74368;DHT22;64991;41.090;-8.118;2024-01-10T19:25:15;13.50;81.50
74368;DHT22;64991;41.090;-8.118;2024-01-10T19:30:19;13.50;81.50
74368;DHT22;64991;41.090;-8.118;2024-01-10T19:35:25;13.50;81.40
74368;DHT22;64991;41.090;-8.118;2024-01-10T19:40:29;13.50;81.40
74368;DHT22;64991;41.090;-8.118;2024-01-10T19:45:34;13.50;81.80
74368;DHT22;64991;41.090;-8.118;2024-01-10T19:50:39;13.50;81.60
74368;DHT22;64991;41.090;-8.118;2024-01-10T19:55:42;13.60;81.70
74368;DHT22;64991;41.090;-8.118;2024-01-10T20:00:46;13.50;81.50
74368;DHT22;64991;41.090;-8.118;2024-01-10T20:05:51;13.50;81.50
74368;DHT22;64991;41.090;-8.118;2024-01-10T20:10:55;13.50;81.80
74368;DHT22;64991;41.090;-8.118;2024-01-10T20:15:59;13.50;81.60
74368;DHT22;64991;41.090;-8.118;2024-01-10T20:21:05;13.50;81.70
74368;DHT22;64991;41.090;-8.118;2024-01-10T20:26:09;13.50;81.70
74368;DHT22;64991;41.090;-8.118;2024-01-10T20:31:13;13.60;81.60
74368;DHT22;64991;41.090;-8.118;2024-01-10T20:36:18;13.50;81.60
74368;DHT22;64991;41.090;-8.118;2024-01-10T20:41:22;13.50;81.70
74368;DHT22;64991;41.090;-8.118;2024-01-10T20:46:26;13.40;81.60
74368;DHT22;64991;41.090;-8.118;2024-01-10T20:51:32;13.50;82.00
74368;DHT22;64991;41.090;-8.118;2024-01-10T20:56:35;13.50;81.70
74368;DHT22;64991;41.090;-8.118;2024-01-10T21:01:39;13.50;81.40
74368;DHT22;64991;41.090;-8.118;2024-01-10T21:06:44;13.40;81.60
74368;DHT22;64991;41.090;-8.118;2024-01-10T21:12:08;13.50;81.60
74368;DHT22;64991;41.090;-8.118;2024-01-10T21:17:13;13.50;81.50
74368;DHT22;64991;41.090;-8.118;2024-01-10T21:22:19;13.50;81.80
74368;DHT22;64991;41.090;-8.118;2024-01-10T21:27:23;13.50;81.50
74368;DHT22;64991;41.090;-8.118;2024-01-10T21:32:27;13.50;81.60
74368;DHT22;64991;41.090;-8.118;2024-01-10T21:37:33;13.50;81.50
74368;DHT22;64991;41.090;-8.118;2024-01-10T21:42:36;13.60;81.80
74368;DHT22;64991;41.090;-8.118;2024-01-10T21:47:40;13.50;81.50
74368;DHT22;64991;41.090;-8.118;2024-01-10T21:52:46;13.50;81.70
74368;DHT22;64991;41.090;-8.118;2024-01-10T21:57:50;13.50;81.70
74368;DHT22;64991;41.090;-8.118;2024-01-10T22:02:54;13.50;81.60
74368;DHT22;64991;41.090;-8.118;2024-01-10T22:08:00;13.50;81.60
74368;DHT22;64991;41.090;-8.118;2024-01-10T22:13:09;13.60;81.80
74368;DHT22;64991;41.090;-8.118;2024-01-10T22:18:13;13.50;81.60
74368;DHT22;64991;41.090;-8.118;2024-01-10T22:23:18;13.60;81.60
74368;DHT22;64991;41.090;-8.118;2024-01-10T22:28:22;13.50;81.80
74368;DHT22;64991;41.090;-8.118;2024-01-10T22:33:25;13.60;81.40
74368;DHT22;64991;41.090;-8.118;2024-01-10T22:38:31;13.60;81.60
74368;DHT22;64991;41.090;-8.118;2024-01-10T22:43:34;13.50;81.70
74368;DHT22;64991;41.090;-8.118;2024-01-10T22:48:38;13.50;81.60
74368;DHT22;64991;41.090;-8.118;2024-01-10T22:53:44;13.50;81.50
74368;DHT22;64991;41.090;-8.118;2024-01-10T22:58:48;13.60;81.70
74368;DHT22;64991;41.090;-8.118;2024-01-10T23:03:52;13.50;81.50
74368;DHT22;64991;41.090;-8.118;2024-01-10T23:08:58;13.50;81.60
74368;DHT22;64991;41.090;-8.118;2024-01-10T23:14:02;13.50;81.50
74368;DHT22;64991;41.090;-8.118;2024-01-10T23:19:05;13.50;81.50
74368;DHT22;64991;41.090;-8.118;2024-01-10T23:24:11;13.50;81.80
74368;DHT22;64991;41.090;-8.118;2024-01-10T23:29:15;13.50;81.70
74368;DHT22;64991;41.090;-8.118;2024-01-10T23:34:19;13.50;81.80
74368;DHT22;64991;41.090;-8.118;2024-01-10T23:39:24;13.60;81.70
74368;DHT22;64991;41.090;-8.118;2024-01-10T23:44:28;13.40;81.70
74368;DHT22;64991;41.090;-8.118;2024-01-10T23:49:32;13.60;81.70
74368;DHT22;64991;41.090;-8.118;2024-01-10T23:54:39;13.50;81.70
74368;DHT22;64991;41.090;-8.118;2024-01-10T23:59:43;13.50;82.00
